Detalii statie UNIC PROD [00001D09]

Toti senzorii

Date Temperatura solului [C]Precipitatii [mm]Voltaj baterie [mV]Leaf Wetness [Min]HC Air temperature [C]HC Relative humidity [%]Punctul de roua [C]
medieminmaxsumaultimatimpmedieminmaxmediemediemin
2017-06-25 06:00:00 19.8 19.6 20 0 6816 19.04 17.86 20.21 100 18.9 17.8
2017-06-25 07:00:00 19.8 19.7 19.9 0 6864 22.22 20.42 24.7 95.62 21.3 20.4
2017-06-25 08:00:00 19.6 19.6 19.7 0 6914 26.17 25.46 26.99 73.77 20.9 20.3
2017-06-25 09:00:00 19.6 19.6 19.8 0 7216 27.34 26.69 28.31 69.7 21.1 20.6
2017-06-25 10:00:00 19.6 19.5 19.7 0 7226 28.56 27.29 29.47 64.52 20.9 19.8
2017-06-25 11:00:00 19.6 19.6 19.8 0 7226 29.98 29.35 30.79 51.06 18.4 17.4
2017-06-25 12:00:00 19.7 19.6 19.9 0 7216 31.38 30.91 31.95 47.47 18.7 17.7
2017-06-25 13:00:00 19.9 19.8 20.1 0 7216 32.39 31.49 33.4 49.91 20.3 18.6
2017-06-25 14:00:00 20 19.9 20.1 0 7206 33.74 32.83 34.43 47.04 20.5 18.5
2017-06-25 15:00:00 20.2 20.1 20.4 0 7206 34.13 33.29 34.85 41.86 19 17.6
2017-06-25 16:00:00 20.4 20.4 20.5 0 7206 33.99 33.43 34.43 35.37 16.2 14.8
2017-06-25 17:00:00 20.5 20.5 20.7 0 7040 33.65 32.72 34.65 36.7 16.5 14.7
2017-06-25 18:00:00 20.6 20.5 20.8 0 7196 32.46 32.01 32.98 38.84 16.3 15.1
2017-06-25 19:00:00 20.7 20.7 20.8 0 6834 31.94 30.06 33.11 42.8 17.2 15.5
2017-06-25 20:00:00 20.8 20.8 20.9 0 6816 26.36 23.2 29.23 76.53 21.5 19.5
2017-06-25 21:00:00 20.9 20.8 21 0 6816 21.79 20.88 22.83 100 21.7 20.8
2017-06-25 22:00:00 20.8 20.8 20.9 0 6806 22.22 20.98 23.09 98.55 21.8 20.9
2017-06-25 23:00:00 20.7 20.7 20.8 0 6806 22.5 21.94 23 90.74 20.7 20
2017-06-26 00:00:00 20.7 20.6 20.8 0 6796 22.46 21.88 22.85 83.46 19.4 19.2
2017-06-26 01:00:00 20.7 20.6 20.9 0 6796 21.9 21.67 22.12 82.61 18.6 18.2
2017-06-26 02:00:00 20.6 20.5 20.7 0 6806 20.2 18.89 21.49 92.42 18.7 18.2
2017-06-26 03:00:00 20.5 20.5 20.6 0 6786 18.85 18.71 19.01 100 18.8 18.7
2017-06-26 04:00:00 20.3 20.3 20.5 0 6796 18.37 18.03 18.64 100 18.3 18
2017-06-26 05:00:00 20.3 20.1 20.4 0 6786 17.6 17.22 18.06 100 17.5 17.2
2017-06-26 06:00:00 20.2 20.1 20.3 0 6816 19.55 17.98 21.82 96.72 18.9 17.9
2017-06-26 07:00:00 20.1 20.1 20.3 0 6854 22.99 21.8 23.66 75.47 18.2 17.6
2017-06-26 08:00:00 20 19.9 20.1 0 6894 26.21 23.4 28.37 63.49 18.5 17.3
2017-06-26 09:00:00 19.9 19.8 20.1 0 7020 29.11 27.79 30.77 57.26 19.5 18
2017-06-26 10:00:00 19.9 19.8 20.1 0 7216 31.35 29.79 32.26 49.94 19.4 18.4
2017-06-26 11:00:00 20 20 20.1 0 7216 32.74 31.4 34 46.23 19.4 18.4
2017-06-26 12:00:00 20 20 20.2 0 7216 33.39 32.82 34.18 46.69 20.1 18.2
2017-06-26 13:00:00 20.2 20.1 20.3 0 7216 35.39 34.5 35.91 41.5 20 17.7
2017-06-26 14:00:00 20.3 20.2 20.4 0 7216 35.07 33.34 36.12 39.32 18.8 16.8
2017-06-26 15:00:00 20.4 20.3 20.6 0 7206 34.51 32.66 36.34 40.79 19 16.7
2017-06-26 16:00:00 20.6 20.5 20.9 0 7216 34.77 33.98 35.78 41.04 19.2 17.2
2017-06-26 17:00:00 20.8 20.7 21 0 6972 33.88 32.94 34.56 43.06 19.2 17.8
2017-06-26 18:00:00 20.9 20.9 21.1 0 7010 32.11 31.27 33.05 48.35 19.6 18.6
2017-06-26 19:00:00 21 21 21.1 0 6864 30.18 28.83 31.22 54.52 19.7 17.9
2017-06-26 20:00:00 21.1 21.1 21.2 0 6826 27.42 26.83 28.52 61.84 19.3 18.1
2017-06-26 21:00:00 21.1 21.1 21.2 0 6816 25.53 24.81 26.5 65.49 18.4 18.3
2017-06-26 22:00:00 21.1 21.1 21.2 0 6816 24.3 24.01 24.79 70.6 18.4 18.3
2017-06-26 23:00:00 21.1 21.1 21.2 0 6816 23.55 23.35 23.87 73.58 18.4 18.3
2017-06-27 00:00:00 21.1 21.1 21.2 0 6806 23.1 22.55 23.53 72.28 17.7 17.5
2017-06-27 01:00:00 21 20.9 21.1 0 6796 21.18 19.68 22.32 84.64 18.3 17.7
2017-06-27 02:00:00 20.9 20.8 21.1 0 6806 19.29 19.11 19.47 99.87 19.2 19.1
2017-06-27 03:00:00 20.8 20.8 21 0 6796 19.85 19.56 20.05 100 19.8 19.5
2017-06-27 04:00:00 20.7 20.6 20.8 0 6786 20.49 20.03 20.95 100 20.4 20
2017-06-27 05:00:00 20.6 20.5 20.9 0 6796 18.79 17.97 19.99 100 18.7 17.9